Vila do Carmo do Tocantins, Brazil
Current Conditions -  °F | °C
As of 6:30 PM on Friday 24 Oct 2014 (Local Time) from SBTU Reporting Station
Thunderstorm Thunderstorm  
Wind Chill: 75°   Ceiling: 8000
Heat Index: 75°   Visibility: 5mi
Dew Point: 73°   Wind: 6mph
Humidity: 94%   Direction: 240°WSW
Pressure: 29.83"   Gusts: NA
Location:  2.45°S, 49.44°W
Report Text: SBTU 242130Z 24005KT 8000 -TSRA SCT015 FEW020CB BKN080 24/23 Q1010
Loading
Personal Weather Stations






























Interactive Weather Map
Tropical Storm Tracking
New forecast layout! Learn more

10-Day Weather Forecast

Advertisements
Track Severe Weather on mobile